sensor_id;sensor_type;location;lat;lon;timestamp;P1;durP1;ratioP1;P2;durP2;ratioP2
32826;SDS011;51059;42.058;27.986;2022-11-02T00:01:51;20.23;;;12.00;;
32826;SDS011;51059;42.058;27.986;2022-11-02T00:04:17;16.33;;;11.93;;
32826;SDS011;51059;42.058;27.986;2022-11-02T00:06:43;15.17;;;11.67;;
32826;SDS011;51059;42.058;27.986;2022-11-02T00:09:08;16.40;;;11.93;;
32826;SDS011;51059;42.058;27.986;2022-11-02T00:11:35;16.77;;;12.07;;
32826;SDS011;51059;42.058;27.986;2022-11-02T00:14:01;17.27;;;11.97;;
32826;SDS011;51059;42.058;27.986;2022-11-02T00:16:27;15.93;;;12.07;;
32826;SDS011;51059;42.058;27.986;2022-11-02T00:18:53;17.00;;;11.90;;
32826;SDS011;51059;42.058;27.986;2022-11-02T00:21:20;17.93;;;12.03;;
32826;SDS011;51059;42.058;27.986;2022-11-02T00:23:47;17.50;;;11.80;;
32826;SDS011;51059;42.058;27.986;2022-11-02T00:26:13;16.53;;;11.97;;
32826;SDS011;51059;42.058;27.986;2022-11-02T00:28:39;15.90;;;11.97;;
32826;SDS011;51059;42.058;27.986;2022-11-02T00:31:05;16.67;;;11.50;;
32826;SDS011;51059;42.058;27.986;2022-11-02T00:33:31;16.80;;;11.40;;
32826;SDS011;51059;42.058;27.986;2022-11-02T00:35:56;16.63;;;12.13;;
32826;SDS011;51059;42.058;27.986;2022-11-02T00:38:22;13.90;;;11.70;;
32826;SDS011;51059;42.058;27.986;2022-11-02T00:40:48;18.27;;;11.87;;
32826;SDS011;51059;42.058;27.986;2022-11-02T00:43:13;17.47;;;11.97;;
32826;SDS011;51059;42.058;27.986;2022-11-02T00:45:39;17.67;;;12.50;;
32826;SDS011;51059;42.058;27.986;2022-11-02T00:48:04;21.30;;;12.57;;
32826;SDS011;51059;42.058;27.986;2022-11-02T00:50:30;15.03;;;12.03;;
32826;SDS011;51059;42.058;27.986;2022-11-02T00:52:56;17.87;;;12.20;;
32826;SDS011;51059;42.058;27.986;2022-11-02T00:55:21;16.47;;;12.10;;
32826;SDS011;51059;42.058;27.986;2022-11-02T00:57:47;16.60;;;12.37;;
32826;SDS011;51059;42.058;27.986;2022-11-02T01:00:13;20.07;;;12.53;;
32826;SDS011;51059;42.058;27.986;2022-11-02T01:02:39;16.90;;;12.27;;
32826;SDS011;51059;42.058;27.986;2022-11-02T01:05:05;16.87;;;12.53;;
32826;SDS011;51059;42.058;27.986;2022-11-02T01:07:32;19.67;;;12.50;;
32826;SDS011;51059;42.058;27.986;2022-11-02T01:09:57;17.00;;;11.77;;
32826;SDS011;51059;42.058;27.986;2022-11-02T01:12:23;17.90;;;12.13;;
32826;SDS011;51059;42.058;27.986;2022-11-02T01:14:49;15.73;;;11.50;;
32826;SDS011;51059;42.058;27.986;2022-11-02T01:17:15;18.97;;;12.27;;
32826;SDS011;51059;42.058;27.986;2022-11-02T01:19:41;14.63;;;11.60;;
32826;SDS011;51059;42.058;27.986;2022-11-02T01:22:07;16.27;;;12.30;;
32826;SDS011;51059;42.058;27.986;2022-11-02T01:24:32;13.73;;;11.23;;
32826;SDS011;51059;42.058;27.986;2022-11-02T01:26:58;15.30;;;11.43;;
32826;SDS011;51059;42.058;27.986;2022-11-02T01:29:24;14.03;;;11.03;;
32826;SDS011;51059;42.058;27.986;2022-11-02T01:31:49;14.30;;;10.80;;
32826;SDS011;51059;42.058;27.986;2022-11-02T01:34:18;15.20;;;11.47;;
32826;SDS011;51059;42.058;27.986;2022-11-02T01:36:44;16.23;;;10.97;;
32826;SDS011;51059;42.058;27.986;2022-11-02T01:39:13;17.83;;;11.67;;
32826;SDS011;51059;42.058;27.986;2022-11-02T01:41:40;14.27;;;11.40;;
32826;SDS011;51059;42.058;27.986;2022-11-02T01:44:28;14.60;;;11.53;;
32826;SDS011;51059;42.058;27.986;2022-11-02T01:47:13;15.53;;;11.13;;
32826;SDS011;51059;42.058;27.986;2022-11-02T01:49:54;15.10;;;11.57;;
32826;SDS011;51059;42.058;27.986;2022-11-02T01:52:25;17.90;;;11.50;;
32826;SDS011;51059;42.058;27.986;2022-11-02T01:57:31;17.00;;;12.03;;
32826;SDS011;51059;42.058;27.986;2022-11-02T01:59:59;20.33;;;12.20;;
32826;SDS011;51059;42.058;27.986;2022-11-02T02:02:38;20.83;;;12.00;;
32826;SDS011;51059;42.058;27.986;2022-11-02T02:05:08;15.53;;;11.67;;
32826;SDS011;51059;42.058;27.986;2022-11-02T02:07:35;17.17;;;11.90;;
32826;SDS011;51059;42.058;27.986;2022-11-02T02:10:02;15.73;;;12.33;;
32826;SDS011;51059;42.058;27.986;2022-11-02T02:12:29;13.87;;;11.23;;
32826;SDS011;51059;42.058;27.986;2022-11-02T02:14:55;17.83;;;12.03;;
32826;SDS011;51059;42.058;27.986;2022-11-02T02:17:42;17.30;;;12.00;;
32826;SDS011;51059;42.058;27.986;2022-11-02T02:20:34;18.10;;;12.37;;
32826;SDS011;51059;42.058;27.986;2022-11-02T02:23:32;17.63;;;11.60;;
32826;SDS011;51059;42.058;27.986;2022-11-02T02:26:12;17.30;;;11.60;;
32826;SDS011;51059;42.058;27.986;2022-11-02T02:29:00;16.47;;;11.80;;
32826;SDS011;51059;42.058;27.986;2022-11-02T02:36:47;18.73;;;12.23;;
32826;SDS011;51059;42.058;27.986;2022-11-02T02:39:25;18.20;;;12.97;;
32826;SDS011;51059;42.058;27.986;2022-11-02T02:44:22;19.23;;;12.53;;
32826;SDS011;51059;42.058;27.986;2022-11-02T02:46:56;19.77;;;12.20;;
32826;SDS011;51059;42.058;27.986;2022-11-02T02:49:28;16.90;;;12.30;;
32826;SDS011;51059;42.058;27.986;2022-11-02T02:52:05;15.27;;;11.67;;
32826;SDS011;51059;42.058;27.986;2022-11-02T02:54:39;16.43;;;12.53;;
32826;SDS011;51059;42.058;27.986;2022-11-02T02:57:06;16.00;;;12.03;;
32826;SDS011;51059;42.058;27.986;2022-11-02T02:59:36;15.87;;;12.03;;
32826;SDS011;51059;42.058;27.986;2022-11-02T03:02:05;16.63;;;12.23;;
32826;SDS011;51059;42.058;27.986;2022-11-02T03:04:35;13.90;;;11.73;;
32826;SDS011;51059;42.058;27.986;2022-11-02T03:07:01;17.17;;;12.00;;
32826;SDS011;51059;42.058;27.986;2022-11-02T03:09:40;19.50;;;12.03;;
32826;SDS011;51059;42.058;27.986;2022-11-02T03:12:20;17.43;;;11.87;;
32826;SDS011;51059;42.058;27.986;2022-11-02T03:20:38;14.77;;;11.90;;
32826;SDS011;51059;42.058;27.986;2022-11-02T03:23:19;16.90;;;11.83;;
32826;SDS011;51059;42.058;27.986;2022-11-02T03:28:32;16.30;;;11.87;;
32826;SDS011;51059;42.058;27.986;2022-11-02T03:31:16;14.23;;;11.20;;
32826;SDS011;51059;42.058;27.986;2022-11-02T03:33:53;19.97;;;12.53;;
32826;SDS011;51059;42.058;27.986;2022-11-02T03:36:45;18.13;;;12.40;;
32826;SDS011;51059;42.058;27.986;2022-11-02T03:39:21;17.37;;;12.23;;
32826;SDS011;51059;42.058;27.986;2022-11-02T03:41:52;19.37;;;12.60;;
32826;SDS011;51059;42.058;27.986;2022-11-02T03:44:20;16.00;;;12.47;;
32826;SDS011;51059;42.058;27.986;2022-11-02T03:46:48;15.57;;;12.00;;
32826;SDS011;51059;42.058;27.986;2022-11-02T03:49:15;18.77;;;12.10;;
32826;SDS011;51059;42.058;27.986;2022-11-02T03:51:43;19.60;;;12.13;;
32826;SDS011;51059;42.058;27.986;2022-11-02T03:54:26;19.70;;;12.43;;
32826;SDS011;51059;42.058;27.986;2022-11-02T03:56:59;19.37;;;12.03;;
32826;SDS011;51059;42.058;27.986;2022-11-02T03:59:30;20.37;;;12.80;;
32826;SDS011;51059;42.058;27.986;2022-11-02T04:01:56;17.27;;;12.67;;
32826;SDS011;51059;42.058;27.986;2022-11-02T04:04:23;17.07;;;12.60;;
32826;SDS011;51059;42.058;27.986;2022-11-02T04:06:48;18.63;;;13.77;;
32826;SDS011;51059;42.058;27.986;2022-11-02T04:09:14;19.97;;;13.97;;
32826;SDS011;51059;42.058;27.986;2022-11-02T04:11:40;18.00;;;13.03;;
32826;SDS011;51059;42.058;27.986;2022-11-02T04:14:23;17.50;;;14.10;;
32826;SDS011;51059;42.058;27.986;2022-11-02T04:17:05;15.13;;;13.00;;
32826;SDS011;51059;42.058;27.986;2022-11-02T04:19:50;17.10;;;12.93;;
32826;SDS011;51059;42.058;27.986;2022-11-02T04:22:17;17.13;;;13.07;;
32826;SDS011;51059;42.058;27.986;2022-11-02T04:25:01;16.93;;;12.53;;
32826;SDS011;51059;42.058;27.986;2022-11-02T04:27:43;22.13;;;13.70;;
32826;SDS011;51059;42.058;27.986;2022-11-02T04:30:11;18.63;;;13.40;;
32826;SDS011;51059;42.058;27.986;2022-11-02T04:32:37;16.93;;;12.60;;
32826;SDS011;51059;42.058;27.986;2022-11-02T04:35:22;17.47;;;12.67;;
32826;SDS011;51059;42.058;27.986;2022-11-02T04:37:48;19.60;;;12.87;;
32826;SDS011;51059;42.058;27.986;2022-11-02T04:40:32;18.40;;;13.63;;
32826;SDS011;51059;42.058;27.986;2022-11-02T04:42:58;16.77;;;12.93;;
32826;SDS011;51059;42.058;27.986;2022-11-02T04:45:24;17.27;;;12.17;;
32826;SDS011;51059;42.058;27.986;2022-11-02T04:47:49;16.77;;;13.60;;
32826;SDS011;51059;42.058;27.986;2022-11-02T04:50:15;17.93;;;13.30;;
32826;SDS011;51059;42.058;27.986;2022-11-02T04:52:41;16.97;;;13.20;;
32826;SDS011;51059;42.058;27.986;2022-11-02T04:55:06;17.77;;;13.67;;
32826;SDS011;51059;42.058;27.986;2022-11-02T04:57:32;19.33;;;14.30;;
32826;SDS011;51059;42.058;27.986;2022-11-02T04:59:58;18.40;;;13.80;;
32826;SDS011;51059;42.058;27.986;2022-11-02T05:02:23;19.37;;;13.43;;
32826;SDS011;51059;42.058;27.986;2022-11-02T05:04:49;19.87;;;14.20;;
32826;SDS011;51059;42.058;27.986;2022-11-02T05:07:14;18.57;;;14.27;;
32826;SDS011;51059;42.058;27.986;2022-11-02T05:09:40;19.83;;;13.80;;
32826;SDS011;51059;42.058;27.986;2022-11-02T05:12:08;20.33;;;14.63;;
32826;SDS011;51059;42.058;27.986;2022-11-02T05:14:34;22.80;;;15.27;;
32826;SDS011;51059;42.058;27.986;2022-11-02T05:17:00;23.07;;;15.27;;
32826;SDS011;51059;42.058;27.986;2022-11-02T05:19:25;20.37;;;14.47;;
32826;SDS011;51059;42.058;27.986;2022-11-02T05:21:51;18.87;;;13.40;;
32826;SDS011;51059;42.058;27.986;2022-11-02T05:24:17;20.50;;;12.63;;
32826;SDS011;51059;42.058;27.986;2022-11-02T05:26:42;21.00;;;17.17;;
32826;SDS011;51059;42.058;27.986;2022-11-02T05:29:08;23.00;;;14.50;;
32826;SDS011;51059;42.058;27.986;2022-11-02T05:31:34;18.43;;;14.27;;
32826;SDS011;51059;42.058;27.986;2022-11-02T05:33:59;17.80;;;12.77;;
32826;SDS011;51059;42.058;27.986;2022-11-02T05:36:25;15.13;;;11.43;;
32826;SDS011;51059;42.058;27.986;2022-11-02T05:38:51;13.77;;;11.37;;
32826;SDS011;51059;42.058;27.986;2022-11-02T05:41:20;15.07;;;10.60;;
32826;SDS011;51059;42.058;27.986;2022-11-02T05:43:46;15.07;;;10.73;;
32826;SDS011;51059;42.058;27.986;2022-11-02T05:46:12;13.87;;;11.30;;
32826;SDS011;51059;42.058;27.986;2022-11-02T05:48:40;17.53;;;12.37;;
32826;SDS011;51059;42.058;27.986;2022-11-02T05:51:06;14.13;;;10.00;;
32826;SDS011;51059;42.058;27.986;2022-11-02T05:53:32;14.70;;;9.63;;
32826;SDS011;51059;42.058;27.986;2022-11-02T05:56:01;17.77;;;10.40;;
32826;SDS011;51059;42.058;27.986;2022-11-02T05:58:28;15.27;;;9.73;;
32826;SDS011;51059;42.058;27.986;2022-11-02T06:00:54;15.33;;;9.53;;
32826;SDS011;51059;42.058;27.986;2022-11-02T06:03:23;16.07;;;9.40;;
32826;SDS011;51059;42.058;27.986;2022-11-02T06:05:54;11.60;;;9.80;;
32826;SDS011;51059;42.058;27.986;2022-11-02T06:08:25;13.73;;;9.63;;
32826;SDS011;51059;42.058;27.986;2022-11-02T06:10:51;15.97;;;10.13;;
32826;SDS011;51059;42.058;27.986;2022-11-02T06:13:17;11.80;;;9.53;;
32826;SDS011;51059;42.058;27.986;2022-11-02T06:15:43;13.60;;;9.37;;
32826;SDS011;51059;42.058;27.986;2022-11-02T06:18:09;15.63;;;9.33;;
32826;SDS011;51059;42.058;27.986;2022-11-02T06:20:34;15.90;;;9.83;;
32826;SDS011;51059;42.058;27.986;2022-11-02T06:23:00;11.83;;;8.70;;
32826;SDS011;51059;42.058;27.986;2022-11-02T06:25:25;14.50;;;9.03;;
32826;SDS011;51059;42.058;27.986;2022-11-02T06:27:52;12.77;;;8.90;;
32826;SDS011;51059;42.058;27.986;2022-11-02T06:30:20;13.27;;;9.47;;
32826;SDS011;51059;42.058;27.986;2022-11-02T06:32:49;20.03;;;9.30;;
32826;SDS011;51059;42.058;27.986;2022-11-02T06:35:16;14.47;;;9.17;;
32826;SDS011;51059;42.058;27.986;2022-11-02T06:37:43;11.13;;;8.83;;
32826;SDS011;51059;42.058;27.986;2022-11-02T06:40:10;9.77;;;8.30;;
32826;SDS011;51059;42.058;27.986;2022-11-02T06:42:36;10.00;;;8.50;;
32826;SDS011;51059;42.058;27.986;2022-11-02T06:45:02;10.63;;;8.40;;
32826;SDS011;51059;42.058;27.986;2022-11-02T06:47:29;10.33;;;8.30;;
32826;SDS011;51059;42.058;27.986;2022-11-02T06:50:02;12.50;;;8.03;;
32826;SDS011;51059;42.058;27.986;2022-11-02T06:52:29;13.30;;;9.43;;
32826;SDS011;51059;42.058;27.986;2022-11-02T06:54:55;11.43;;;8.77;;
32826;SDS011;51059;42.058;27.986;2022-11-02T06:57:21;13.50;;;8.87;;
32826;SDS011;51059;42.058;27.986;2022-11-02T06:59:47;12.10;;;8.57;;
32826;SDS011;51059;42.058;27.986;2022-11-02T07:02:12;11.10;;;8.57;;
32826;SDS011;51059;42.058;27.986;2022-11-02T07:04:38;12.60;;;9.13;;
32826;SDS011;51059;42.058;27.986;2022-11-02T07:07:03;10.17;;;8.37;;
32826;SDS011;51059;42.058;27.986;2022-11-02T07:09:29;12.60;;;8.87;;
32826;SDS011;51059;42.058;27.986;2022-11-02T07:11:55;10.53;;;8.87;;
32826;SDS011;51059;42.058;27.986;2022-11-02T07:14:20;12.23;;;9.20;;
32826;SDS011;51059;42.058;27.986;2022-11-02T07:16:46;11.80;;;8.47;;
32826;SDS011;51059;42.058;27.986;2022-11-02T07:19:11;14.33;;;9.00;;
32826;SDS011;51059;42.058;27.986;2022-11-02T07:21:37;13.47;;;9.50;;
32826;SDS011;51059;42.058;27.986;2022-11-02T07:24:03;12.33;;;9.00;;
32826;SDS011;51059;42.058;27.986;2022-11-02T07:26:30;11.47;;;8.97;;
32826;SDS011;51059;42.058;27.986;2022-11-02T07:28:56;16.73;;;9.70;;
32826;SDS011;51059;42.058;27.986;2022-11-02T07:31:22;12.00;;;8.20;;
32826;SDS011;51059;42.058;27.986;2022-11-02T07:33:48;12.13;;;8.90;;
32826;SDS011;51059;42.058;27.986;2022-11-02T07:36:13;15.13;;;8.63;;
32826;SDS011;51059;42.058;27.986;2022-11-02T07:38:39;14.80;;;9.45;;
32826;SDS011;51059;42.058;27.986;2022-11-02T07:41:05;10.47;;;8.70;;
32826;SDS011;51059;42.058;27.986;2022-11-02T07:43:30;12.23;;;8.47;;
32826;SDS011;51059;42.058;27.986;2022-11-02T07:45:56;10.03;;;8.43;;
32826;SDS011;51059;42.058;27.986;2022-11-02T07:48:21;13.37;;;8.33;;
32826;SDS011;51059;42.058;27.986;2022-11-02T07:50:47;10.82;;;8.25;;
32826;SDS011;51059;42.058;27.986;2022-11-02T07:53:12;10.70;;;8.68;;
32826;SDS011;51059;42.058;27.986;2022-11-02T07:55:38;13.73;;;8.93;;
32826;SDS011;51059;42.058;27.986;2022-11-02T07:58:05;10.73;;;8.77;;
32826;SDS011;51059;42.058;27.986;2022-11-02T08:00:35;13.60;;;8.10;;
32826;SDS011;51059;42.058;27.986;2022-11-02T08:03:03;9.57;;;7.77;;
32826;SDS011;51059;42.058;27.986;2022-11-02T08:05:30;13.67;;;7.90;;
32826;SDS011;51059;42.058;27.986;2022-11-02T08:08:03;13.00;;;8.15;;
32826;SDS011;51059;42.058;27.986;2022-11-02T08:10:31;19.20;;;8.40;;
32826;SDS011;51059;42.058;27.986;2022-11-02T08:12:58;14.30;;;8.65;;
32826;SDS011;51059;42.058;27.986;2022-11-02T08:15:24;16.27;;;9.50;;
32826;SDS011;51059;42.058;27.986;2022-11-02T08:18:02;15.07;;;8.85;;
32826;SDS011;51059;42.058;27.986;2022-11-02T08:20:35;13.02;;;9.23;;
32826;SDS011;51059;42.058;27.986;2022-11-02T08:23:01;14.35;;;9.07;;
32826;SDS011;51059;42.058;27.986;2022-11-02T08:25:27;13.75;;;9.80;;
32826;SDS011;51059;42.058;27.986;2022-11-02T08:27:59;16.50;;;9.40;;
32826;SDS011;51059;42.058;27.986;2022-11-02T08:30:25;13.87;;;9.50;;
32826;SDS011;51059;42.058;27.986;2022-11-02T08:32:52;16.47;;;10.40;;
32826;SDS011;51059;42.058;27.986;2022-11-02T08:35:17;20.38;;;9.77;;
32826;SDS011;51059;42.058;27.986;2022-11-02T08:37:43;17.43;;;10.03;;
32826;SDS011;51059;42.058;27.986;2022-11-02T08:40:09;12.77;;;9.65;;
32826;SDS011;51059;42.058;27.986;2022-11-02T08:42:35;13.97;;;8.77;;
32826;SDS011;51059;42.058;27.986;2022-11-02T08:45:04;18.67;;;9.23;;
32826;SDS011;51059;42.058;27.986;2022-11-02T08:47:31;15.67;;;9.27;;
32826;SDS011;51059;42.058;27.986;2022-11-02T08:49:56;14.80;;;9.17;;
32826;SDS011;51059;42.058;27.986;2022-11-02T08:52:22;15.70;;;9.17;;
32826;SDS011;51059;42.058;27.986;2022-11-02T08:54:47;12.27;;;9.15;;
32826;SDS011;51059;42.058;27.986;2022-11-02T08:57:13;19.88;;;9.43;;
32826;SDS011;51059;42.058;27.986;2022-11-02T08:59:38;15.40;;;9.75;;
32826;SDS011;51059;42.058;27.986;2022-11-02T09:02:04;15.10;;;9.87;;
32826;SDS011;51059;42.058;27.986;2022-11-02T09:04:30;14.77;;;9.03;;
32826;SDS011;51059;42.058;27.986;2022-11-02T09:06:55;13.07;;;9.57;;
32826;SDS011;51059;42.058;27.986;2022-11-02T09:09:21;20.83;;;9.60;;
32826;SDS011;51059;42.058;27.986;2022-11-02T09:11:48;16.97;;;9.90;;
32826;SDS011;51059;42.058;27.986;2022-11-02T09:14:14;13.50;;;9.57;;
32826;SDS011;51059;42.058;27.986;2022-11-02T09:16:40;13.02;;;9.70;;
32826;SDS011;51059;42.058;27.986;2022-11-02T09:19:05;13.90;;;9.43;;
32826;SDS011;51059;42.058;27.986;2022-11-02T09:21:31;12.83;;;9.67;;
32826;SDS011;51059;42.058;27.986;2022-11-02T09:23:57;14.77;;;10.80;;
32826;SDS011;51059;42.058;27.986;2022-11-02T09:26:22;13.10;;;10.30;;
32826;SDS011;51059;42.058;27.986;2022-11-02T09:28:48;13.27;;;9.77;;
32826;SDS011;51059;42.058;27.986;2022-11-02T09:31:13;14.77;;;9.63;;
32826;SDS011;51059;42.058;27.986;2022-11-02T09:33:39;16.50;;;10.43;;
32826;SDS011;51059;42.058;27.986;2022-11-02T09:36:05;14.30;;;10.13;;
32826;SDS011;51059;42.058;27.986;2022-11-02T09:38:31;17.40;;;10.53;;
32826;SDS011;51059;42.058;27.986;2022-11-02T09:46:14;16.70;;;10.53;;
32826;SDS011;51059;42.058;27.986;2022-11-02T09:51:51;13.90;;;10.40;;
32826;SDS011;51059;42.058;27.986;2022-11-02T09:54:21;17.23;;;11.03;;
32826;SDS011;51059;42.058;27.986;2022-11-02T09:57:00;16.57;;;11.27;;
32826;SDS011;51059;42.058;27.986;2022-11-02T09:59:29;13.23;;;10.57;;
32826;SDS011;51059;42.058;27.986;2022-11-02T10:01:57;15.50;;;11.67;;
32826;SDS011;51059;42.058;27.986;2022-11-02T10:04:30;13.73;;;11.03;;
32826;SDS011;51059;42.058;27.986;2022-11-02T10:10:02;15.90;;;11.70;;
32826;SDS011;51059;42.058;27.986;2022-11-02T10:12:37;14.80;;;11.27;;
32826;SDS011;51059;42.058;27.986;2022-11-02T10:15:10;16.20;;;11.30;;
32826;SDS011;51059;42.058;27.986;2022-11-02T10:17:38;17.40;;;11.50;;
32826;SDS011;51059;42.058;27.986;2022-11-02T10:20:17;18.47;;;11.40;;
32826;SDS011;51059;42.058;27.986;2022-11-02T10:22:48;16.17;;;10.80;;
32826;SDS011;51059;42.058;27.986;2022-11-02T10:25:14;16.93;;;11.90;;
32826;SDS011;51059;42.058;27.986;2022-11-02T10:27:40;17.33;;;11.47;;
32826;SDS011;51059;42.058;27.986;2022-11-02T10:30:15;15.37;;;11.23;;
32826;SDS011;51059;42.058;27.986;2022-11-02T10:32:42;15.70;;;11.10;;
32826;SDS011;51059;42.058;27.986;2022-11-02T10:40:56;21.60;;;11.93;;
32826;SDS011;51059;42.058;27.986;2022-11-02T10:46:32;15.67;;;11.47;;
32826;SDS011;51059;42.058;27.986;2022-11-02T10:51:37;15.80;;;11.40;;
32826;SDS011;51059;42.058;27.986;2022-11-02T10:54:03;19.43;;;11.50;;
32826;SDS011;51059;42.058;27.986;2022-11-02T10:56:36;15.67;;;11.77;;
32826;SDS011;51059;42.058;27.986;2022-11-02T10:59:11;15.40;;;11.10;;
32826;SDS011;51059;42.058;27.986;2022-11-02T11:01:37;12.73;;;10.93;;
32826;SDS011;51059;42.058;27.986;2022-11-02T11:04:19;13.93;;;11.37;;
32826;SDS011;51059;42.058;27.986;2022-11-02T11:06:55;18.70;;;11.60;;
32826;SDS011;51059;42.058;27.986;2022-11-02T11:11:54;17.07;;;11.83;;
32826;SDS011;51059;42.058;27.986;2022-11-02T11:14:28;17.03;;;11.00;;
32826;SDS011;51059;42.058;27.986;2022-11-02T11:16:57;17.53;;;11.80;;
32826;SDS011;51059;42.058;27.986;2022-11-02T11:22:23;17.50;;;11.83;;
32826;SDS011;51059;42.058;27.986;2022-11-02T11:24:52;18.23;;;11.07;;
32826;SDS011;51059;42.058;27.986;2022-11-02T11:27:21;14.63;;;10.77;;
32826;SDS011;51059;42.058;27.986;2022-11-02T11:29:48;21.40;;;11.50;;
32826;SDS011;51059;42.058;27.986;2022-11-02T11:32:17;17.90;;;10.50;;
32826;SDS011;51059;42.058;27.986;2022-11-02T11:34:54;16.27;;;11.50;;
32826;SDS011;51059;42.058;27.986;2022-11-02T11:37:20;20.77;;;11.20;;
32826;SDS011;51059;42.058;27.986;2022-11-02T11:39:49;16.53;;;11.97;;
32826;SDS011;51059;42.058;27.986;2022-11-02T11:42:18;16.40;;;11.43;;
32826;SDS011;51059;42.058;27.986;2022-11-02T11:44:45;16.03;;;11.93;;
32826;SDS011;51059;42.058;27.986;2022-11-02T11:47:27;18.77;;;12.90;;
32826;SDS011;51059;42.058;27.986;2022-11-02T11:49:55;16.83;;;12.63;;
32826;SDS011;51059;42.058;27.986;2022-11-02T11:52:25;19.07;;;12.60;;
32826;SDS011;51059;42.058;27.986;2022-11-02T11:54:53;17.80;;;12.30;;
32826;SDS011;51059;42.058;27.986;2022-11-02T11:57:30;18.57;;;12.50;;
32826;SDS011;51059;42.058;27.986;2022-11-02T11:59:57;20.83;;;12.10;;
32826;SDS011;51059;42.058;27.986;2022-11-02T12:02:27;19.70;;;11.37;;
32826;SDS011;51059;42.058;27.986;2022-11-02T12:04:58;19.23;;;11.50;;
32826;SDS011;51059;42.058;27.986;2022-11-02T12:21:11;16.80;;;12.17;;
32826;SDS011;51059;42.058;27.986;2022-11-02T12:26:29;18.53;;;11.73;;
32826;SDS011;51059;42.058;27.986;2022-11-02T12:32:01;21.33;;;12.30;;
32826;SDS011;51059;42.058;27.986;2022-11-02T12:37:26;20.07;;;12.83;;
32826;SDS011;51059;42.058;27.986;2022-11-02T12:40:17;18.37;;;11.87;;
32826;SDS011;51059;42.058;27.986;2022-11-02T12:45:51;17.60;;;11.67;;
32826;SDS011;51059;42.058;27.986;2022-11-02T12:48:24;17.13;;;12.10;;
32826;SDS011;51059;42.058;27.986;2022-11-02T12:56:44;19.93;;;12.17;;
32826;SDS011;51059;42.058;27.986;2022-11-02T12:59:21;19.73;;;12.73;;
32826;SDS011;51059;42.058;27.986;2022-11-02T13:01:56;19.53;;;12.83;;
32826;SDS011;51059;42.058;27.986;2022-11-02T13:07:07;18.60;;;12.30;;
32826;SDS011;51059;42.058;27.986;2022-11-02T13:09:40;18.73;;;12.50;;
32826;SDS011;51059;42.058;27.986;2022-11-02T13:12:08;15.70;;;13.10;;
32826;SDS011;51059;42.058;27.986;2022-11-02T13:14:40;21.30;;;12.33;;
32826;SDS011;51059;42.058;27.986;2022-11-02T13:17:11;17.63;;;12.87;;
32826;SDS011;51059;42.058;27.986;2022-11-02T13:19:45;16.40;;;12.47;;
32826;SDS011;51059;42.058;27.986;2022-11-02T13:22:13;19.90;;;12.77;;
32826;SDS011;51059;42.058;27.986;2022-11-02T13:24:44;15.70;;;13.23;;
32826;SDS011;51059;42.058;27.986;2022-11-02T13:27:29;19.87;;;13.43;;
32826;SDS011;51059;42.058;27.986;2022-11-02T13:30:00;21.30;;;13.23;;
32826;SDS011;51059;42.058;27.986;2022-11-02T13:32:35;18.77;;;13.83;;
32826;SDS011;51059;42.058;27.986;2022-11-02T13:40:50;18.83;;;13.97;;
32826;SDS011;51059;42.058;27.986;2022-11-02T13:43:45;19.90;;;14.07;;
32826;SDS011;51059;42.058;27.986;2022-11-02T13:51:29;21.10;;;12.67;;
32826;SDS011;51059;42.058;27.986;2022-11-02T13:56:55;18.17;;;12.93;;
32826;SDS011;51059;42.058;27.986;2022-11-02T13:59:24;17.93;;;12.77;;
32826;SDS011;51059;42.058;27.986;2022-11-02T14:01:58;17.20;;;12.97;;
32826;SDS011;51059;42.058;27.986;2022-11-02T14:04:25;24.70;;;13.80;;
32826;SDS011;51059;42.058;27.986;2022-11-02T14:06:56;19.43;;;13.33;;
32826;SDS011;51059;42.058;27.986;2022-11-02T14:14:44;18.93;;;13.73;;
32826;SDS011;51059;42.058;27.986;2022-11-02T14:17:13;20.73;;;13.67;;
32826;SDS011;51059;42.058;27.986;2022-11-02T14:22:13;21.67;;;14.23;;
32826;SDS011;51059;42.058;27.986;2022-11-02T14:29:47;16.80;;;13.87;;
32826;SDS011;51059;42.058;27.986;2022-11-02T14:46:05;23.43;;;18.47;;
32826;SDS011;51059;42.058;27.986;2022-11-02T14:48:42;29.87;;;19.87;;
32826;SDS011;51059;42.058;27.986;2022-11-02T14:51:17;26.13;;;20.67;;
32826;SDS011;51059;42.058;27.986;2022-11-02T14:53:45;28.27;;;19.73;;
32826;SDS011;51059;42.058;27.986;2022-11-02T14:56:11;26.10;;;18.10;;
32826;SDS011;51059;42.058;27.986;2022-11-02T14:58:38;26.80;;;17.83;;
32826;SDS011;51059;42.058;27.986;2022-11-02T15:01:05;25.43;;;17.83;;
32826;SDS011;51059;42.058;27.986;2022-11-02T15:03:37;26.07;;;18.07;;
32826;SDS011;51059;42.058;27.986;2022-11-02T15:17:02;34.50;;;26.10;;
32826;SDS011;51059;42.058;27.986;2022-11-02T15:19:51;109.23;;;67.30;;
32826;SDS011;51059;42.058;27.986;2022-11-02T15:25:27;122.57;;;79.07;;
32826;SDS011;51059;42.058;27.986;2022-11-02T15:27:56;72.93;;;43.50;;
32826;SDS011;51059;42.058;27.986;2022-11-02T15:30:43;75.70;;;42.73;;
32826;SDS011;51059;42.058;27.986;2022-11-02T15:33:15;52.57;;;36.97;;
32826;SDS011;51059;42.058;27.986;2022-11-02T15:35:45;51.17;;;34.17;;
32826;SDS011;51059;42.058;27.986;2022-11-02T15:38:12;50.80;;;31.33;;
32826;SDS011;51059;42.058;27.986;2022-11-02T15:46:11;38.30;;;25.03;;
32826;SDS011;51059;42.058;27.986;2022-11-02T15:48:54;93.37;;;45.07;;
32826;SDS011;51059;42.058;27.986;2022-11-02T15:59:27;59.87;;;37.13;;
32826;SDS011;51059;42.058;27.986;2022-11-02T16:02:17;71.20;;;43.87;;
32826;SDS011;51059;42.058;27.986;2022-11-02T16:04:54;65.53;;;44.37;;
32826;SDS011;51059;42.058;27.986;2022-11-02T16:07:22;65.00;;;44.87;;
32826;SDS011;51059;42.058;27.986;2022-11-02T16:09:48;62.20;;;43.27;;
32826;SDS011;51059;42.058;27.986;2022-11-02T16:12:18;56.33;;;39.40;;
32826;SDS011;51059;42.058;27.986;2022-11-02T16:14:51;51.13;;;35.83;;
32826;SDS011;51059;42.058;27.986;2022-11-02T16:17:22;44.23;;;27.83;;
32826;SDS011;51059;42.058;27.986;2022-11-02T16:20:13;37.63;;;25.30;;
32826;SDS011;51059;42.058;27.986;2022-11-02T16:23:04;40.67;;;25.57;;
32826;SDS011;51059;42.058;27.986;2022-11-02T16:31:02;23.77;;;17.00;;
32826;SDS011;51059;42.058;27.986;2022-11-02T16:33:41;28.60;;;18.73;;
32826;SDS011;51059;42.058;27.986;2022-11-02T16:36:18;32.60;;;19.17;;
32826;SDS011;51059;42.058;27.986;2022-11-02T16:39:12;24.93;;;18.20;;
32826;SDS011;51059;42.058;27.986;2022-11-02T16:41:38;26.97;;;18.40;;
32826;SDS011;51059;42.058;27.986;2022-11-02T16:44:08;29.73;;;17.77;;
32826;SDS011;51059;42.058;27.986;2022-11-02T16:46:39;27.27;;;16.47;;
32826;SDS011;51059;42.058;27.986;2022-11-02T16:51:36;26.20;;;13.83;;
32826;SDS011;51059;42.058;27.986;2022-11-02T16:56:52;20.33;;;13.07;;
32826;SDS011;51059;42.058;27.986;2022-11-02T16:59:19;25.43;;;13.73;;
32826;SDS011;51059;42.058;27.986;2022-11-02T17:01:45;19.50;;;13.23;;
32826;SDS011;51059;42.058;27.986;2022-11-02T17:04:19;23.87;;;13.03;;
32826;SDS011;51059;42.058;27.986;2022-11-02T17:06:46;21.53;;;12.97;;